VVZ weather

Illizi Takhamalt Airport
Illizi, Illizi Province, Algeria

Public forecast

Using degrees Celsius for public forecast. Weather courtesy of forecast.io.

Current aviation weather report (METAR) for Illizi Takhamalt Airport

Retrieved 2019/10/14 14:00 UTC (11 minutes ago):

DAAP 141400Z 10004KT CAVOK 32/06 Q1015

Aviation forecast (TAF) for Illizi Takhamalt Airport

Forecast is more than 12 hours old.

Retrieved 2017/11/09 18:03 UTC (2 years ago):

TAF TAF DAAP 091700Z 0918/1009 17010KT CAVOK